createdAt,value
2019-01-06T00:00:04.059Z,777.7
2019-01-06T00:00:08.354Z,777.7
2019-01-06T00:00:12.642Z,777.65
2019-01-06T00:00:16.941Z,777.69
2019-01-06T00:00:21.231Z,777.66
2019-01-06T00:00:25.519Z,777.75
2019-01-06T00:00:29.825Z,777.76
2019-01-06T00:00:34.116Z,777.72
2019-01-06T00:00:38.413Z,777.72
2019-01-06T00:00:42.703Z,777.76
2019-01-06T00:00:47.076Z,777.72
2019-01-06T00:00:51.369Z,777.72
2019-01-06T00:00:55.680Z,777.72
2019-01-06T00:00:59.975Z,777.72
2019-01-06T00:01:04.266Z,777.72
2019-01-06T00:01:08.467Z,777.64
2019-01-06T00:01:12.762Z,777.69
2019-01-06T00:01:17.055Z,777.68
2019-01-06T00:01:21.422Z,777.72
2019-01-06T00:01:25.726Z,777.69
2019-01-06T00:01:30.014Z,777.67
2019-01-06T00:01:34.310Z,777.67
2019-01-06T00:01:38.599Z,777.66
2019-01-06T00:01:42.891Z,777.62
2019-01-06T00:01:47.261Z,777.64
2019-01-06T00:01:51.474Z,777.67
2019-01-06T00:01:55.582Z,777.65
2019-01-06T00:01:59.876Z,777.67
2019-01-06T00:02:04.174Z,777.66
2019-01-06T00:02:08.470Z,777.63
2019-01-06T00:02:12.770Z,777.62
2019-01-06T00:02:17.060Z,777.65
2019-01-06T00:02:21.424Z,777.65
2019-01-06T00:02:25.716Z,777.64
2019-01-06T00:02:30.003Z,777.61
2019-01-06T00:02:34.308Z,777.63
2019-01-06T00:02:38.599Z,777.63
2019-01-06T00:02:42.900Z,777.58
2019-01-06T00:02:47.094Z,777.58
2019-01-06T00:02:51.393Z,777.6
2019-01-06T00:02:55.682Z,777.57
2019-01-06T00:02:59.980Z,777.56
2019-01-06T00:03:04.275Z,777.58
2019-01-06T00:03:08.576Z,777.55
2019-01-06T00:03:12.869Z,777.56
2019-01-06T00:03:17.159Z,777.54
2019-01-06T00:03:21.455Z,777.55
2019-01-06T00:03:25.748Z,777.54
2019-01-06T00:03:31.833Z,777.55
2019-01-06T00:03:36.212Z,777.51
2019-01-06T00:03:40.503Z,777.56
2019-01-06T00:03:44.875Z,777.56
2019-01-06T00:03:49.072Z,777.53
2019-01-06T00:03:53.368Z,777.56
2019-01-06T00:03:57.665Z,777.53
2019-01-06T00:04:02.020Z,777.54
2019-01-06T00:04:06.318Z,777.53
2019-01-06T00:04:10.618Z,777.52
2019-01-06T00:04:14.814Z,777.57
2019-01-06T00:04:19.112Z,777.6
2019-01-06T00:04:23.402Z,777.55
2019-01-06T00:04:27.695Z,777.56
2019-01-06T00:04:32.023Z,777.5
2019-01-06T00:04:36.229Z,777.54
2019-01-06T00:04:40.610Z,777.51
2019-01-06T00:04:44.906Z,777.57
2019-01-06T00:04:49.201Z,777.53
2019-01-06T00:04:53.396Z,777.51
2019-01-06T00:04:57.589Z,777.55
2019-01-06T00:05:01.880Z,777.58
2019-01-06T00:05:06.174Z,777.53
2019-01-06T00:05:10.471Z,777.56
2019-01-06T00:05:14.770Z,777.58
2019-01-06T00:05:19.063Z,777.51
2019-01-06T00:05:23.361Z,777.51
2019-01-06T00:05:27.656Z,777.54
2019-01-06T00:05:31.949Z,777.54
2019-01-06T00:05:36.279Z,777.54
2019-01-06T00:05:40.480Z,777.53
2019-01-06T00:05:44.774Z,777.53
2019-01-06T00:05:49.075Z,777.56
2019-01-06T00:05:53.372Z,777.61
2019-01-06T00:05:57.664Z,777.58
2019-01-06T00:06:02.001Z,777.57
2019-01-06T00:06:06.290Z,777.55
2019-01-06T00:06:10.580Z,777.58
2019-01-06T00:06:14.882Z,777.6
2019-01-06T00:06:19.077Z,777.6
2019-01-06T00:06:23.371Z,777.63
2019-01-06T00:06:27.670Z,777.63
2019-01-06T00:06:31.863Z,777.61
2019-01-06T00:06:36.163Z,777.57
2019-01-06T00:06:40.455Z,777.57
2019-01-06T00:06:44.756Z,777.55
2019-01-06T00:06:49.053Z,777.52
2019-01-06T00:06:53.346Z,777.52
2019-01-06T00:06:57.641Z,777.58
2019-01-06T00:07:01.946Z,777.58
2019-01-06T00:07:06.236Z,777.62
2019-01-06T00:07:10.527Z,777.61
2019-01-06T00:07:14.728Z,777.63
2019-01-06T00:07:19.093Z,777.59
2019-01-06T00:07:23.384Z,777.5
2019-01-06T00:07:27.580Z,777.56
2019-01-06T00:07:31.880Z,777.58
2019-01-06T00:07:36.196Z,777.57
2019-01-06T00:07:40.491Z,777.66
2019-01-06T00:07:44.790Z,777.6
2019-01-06T00:07:49.081Z,777.6
2019-01-06T00:07:53.332Z,777.58
2019-01-06T00:07:57.637Z,777.61
2019-01-06T00:08:01.933Z,777.59
2019-01-06T00:08:06.276Z,777.6
2019-01-06T00:08:10.472Z,777.62
2019-01-06T00:08:14.791Z,777.67
2019-01-06T00:08:19.090Z,777.65
2019-01-06T00:08:23.389Z,777.65
2019-01-06T00:08:27.685Z,777.65
2019-01-06T00:08:31.976Z,777.64
2019-01-06T00:08:36.174Z,777.62
2019-01-06T00:08:40.471Z,777.63
2019-01-06T00:08:44.780Z,777.66
2019-01-06T00:08:48.974Z,777.67
2019-01-06T00:08:53.278Z,777.67
2019-01-06T00:08:57.579Z,777.68
2019-01-06T00:09:01.874Z,777.68
2019-01-06T00:09:06.223Z,777.68
2019-01-06T00:09:10.510Z,777.68
2019-01-06T00:09:14.803Z,777.68
2019-01-06T00:09:19.101Z,777.7
2019-01-06T00:09:23.396Z,777.72
2019-01-06T00:09:27.686Z,777.74
2019-01-06T00:09:31.977Z,777.68
2019-01-06T00:09:36.274Z,777.72
2019-01-06T00:09:40.575Z,777.69
2019-01-06T00:09:44.775Z,777.7
2019-01-06T00:09:49.071Z,777.7
2019-01-06T00:09:53.360Z,777.74
2019-01-06T00:09:57.664Z,777.74
2019-01-06T00:10:01.973Z,777.72
2019-01-06T00:10:06.323Z,777.69
2019-01-06T00:10:10.520Z,777.74
2019-01-06T00:10:14.732Z,777.73
2019-01-06T00:10:19.024Z,777.72
2019-01-06T00:10:23.317Z,777.71
2019-01-06T00:10:27.615Z,777.74
2019-01-06T00:10:31.909Z,777.73
2019-01-06T00:10:36.202Z,777.76
2019-01-06T00:10:40.495Z,777.76
2019-01-06T00:10:44.783Z,777.72
2019-01-06T00:10:49.074Z,777.71
2019-01-06T00:10:53.371Z,777.73
2019-01-06T00:10:57.668Z,777.69
2019-01-06T00:11:02.022Z,777.71
2019-01-06T00:11:06.317Z,777.72
2019-01-06T00:11:10.615Z,777.73
2019-01-06T00:11:14.907Z,777.73
2019-01-06T00:11:19.198Z,777.71
2019-01-06T00:11:23.571Z,777.7
2019-01-06T00:11:27.771Z,777.76
2019-01-06T00:11:32.061Z,777.7
2019-01-06T00:11:36.348Z,777.69
2019-01-06T00:11:40.644Z,777.71
2019-01-06T00:11:44.935Z,777.68
2019-01-06T00:11:49.227Z,777.73
2019-01-06T00:11:53.518Z,777.69
2019-01-06T00:11:57.808Z,777.69
2019-01-06T00:12:03.707Z,777.71
2019-01-06T00:12:07.909Z,777.7
2019-01-06T00:12:12.213Z,777.7
2019-01-06T00:12:16.511Z,777.68
2019-01-06T00:12:20.802Z,777.69
2019-01-06T00:12:25.102Z,777.63
2019-01-06T00:12:29.395Z,777.69
2019-01-06T00:12:33.697Z,777.71
2019-01-06T00:12:38.002Z,777.68
2019-01-06T00:12:42.394Z,777.67
2019-01-06T00:12:46.595Z,777.67
2019-01-06T00:12:50.798Z,777.73
2019-01-06T00:12:55.095Z,777.65
2019-01-06T00:12:59.294Z,777.65
2019-01-06T00:13:03.594Z,777.69
2019-01-06T00:13:07.888Z,777.68
2019-01-06T00:13:12.199Z,777.7
2019-01-06T00:13:16.500Z,777.64
2019-01-06T00:13:20.785Z,777.68
2019-01-06T00:13:25.079Z,777.65
2019-01-06T00:13:29.372Z,777.65
2019-01-06T00:13:33.669Z,777.67
2019-01-06T00:13:37.959Z,777.66
2019-01-06T00:13:42.268Z,777.64
2019-01-06T00:13:46.562Z,777.63
2019-01-06T00:13:50.847Z,777.64
2019-01-06T00:13:55.064Z,777.62
2019-01-06T00:13:59.368Z,777.62
2019-01-06T00:14:03.665Z,777.63
2019-01-06T00:14:07.958Z,777.62
2019-01-06T00:14:12.258Z,777.66
2019-01-06T00:14:16.555Z,777.65
2019-01-06T00:14:20.940Z,777.71
2019-01-06T00:14:25.239Z,777.69
2019-01-06T00:14:29.529Z,777.67
2019-01-06T00:14:33.822Z,777.64
2019-01-06T00:14:38.212Z,777.63
2019-01-06T00:14:42.511Z,777.7
2019-01-06T00:14:46.707Z,777.69
2019-01-06T00:14:50.900Z,777.63
2019-01-06T00:14:55.203Z,777.67
2019-01-06T00:14:59.496Z,777.64
2019-01-06T00:15:03.761Z,777.65
2019-01-06T00:15:07.971Z,777.65
2019-01-06T00:15:12.271Z,777.71
2019-01-06T00:15:16.580Z,777.69
2019-01-06T00:15:20.877Z,777.71
2019-01-06T00:15:25.184Z,777.69
2019-01-06T00:15:29.376Z,777.71
2019-01-06T00:15:33.576Z,777.7
2019-01-06T00:15:37.770Z,777.71
2019-01-06T00:15:42.062Z,777.7
2019-01-06T00:15:46.262Z,777.7
2019-01-06T00:15:50.459Z,777.71
2019-01-06T00:15:54.759Z,777.68
2019-01-06T00:15:59.073Z,777.71
2019-01-06T00:16:03.516Z,777.68
2019-01-06T00:16:07.815Z,777.68
2019-01-06T00:16:12.110Z,777.73
2019-01-06T00:16:16.418Z,777.68
2019-01-06T00:16:20.716Z,777.7
2019-01-06T00:16:25.018Z,777.67
2019-01-06T00:16:29.215Z,777.69
2019-01-06T00:16:33.510Z,777.76
2019-01-06T00:16:37.711Z,777.75
2019-01-06T00:16:42.004Z,777.73
2019-01-06T00:16:46.308Z,777.76
2019-01-06T00:16:50.609Z,777.76
2019-01-06T00:16:54.911Z,777.78
2019-01-06T00:16:59.207Z,777.78
2019-01-06T00:17:03.509Z,777.77
2019-01-06T00:17:07.801Z,777.77
2019-01-06T00:17:12.092Z,777.78
2019-01-06T00:17:16.287Z,777.74
2019-01-06T00:17:20.579Z,777.79
2019-01-06T00:17:24.879Z,777.76
2019-01-06T00:17:29.173Z,777.79
2019-01-06T00:17:33.468Z,777.79
2019-01-06T00:17:37.757Z,777.78
2019-01-06T00:17:42.072Z,777.79
2019-01-06T00:17:46.364Z,777.78
2019-01-06T00:17:50.575Z,777.78
2019-01-06T00:17:54.779Z,777.81
2019-01-06T00:17:59.079Z,777.83
2019-01-06T00:18:03.412Z,777.83
2019-01-06T00:18:07.613Z,777.83
2019-01-06T00:18:11.905Z,777.85
2019-01-06T00:18:16.194Z,777.84
2019-01-06T00:18:20.484Z,777.84
2019-01-06T00:18:24.774Z,777.86
2019-01-06T00:18:29.067Z,777.85
2019-01-06T00:18:33.358Z,777.85
2019-01-06T00:18:37.655Z,777.89
2019-01-06T00:18:41.948Z,777.87
2019-01-06T00:18:46.237Z,777.9
2019-01-06T00:18:50.604Z,777.86
2019-01-06T00:18:54.796Z,777.85
2019-01-06T00:18:59.090Z,777.89
2019-01-06T00:19:03.390Z,777.9
2019-01-06T00:19:07.588Z,777.92
2019-01-06T00:19:11.783Z,777.89
2019-01-06T00:19:16.085Z,777.86
2019-01-06T00:19:20.377Z,777.88
2019-01-06T00:19:24.670Z,777.89
2019-01-06T00:19:28.961Z,777.87
2019-01-06T00:19:33.254Z,777.9
2019-01-06T00:19:37.544Z,777.9
2019-01-06T00:19:41.843Z,777.85
2019-01-06T00:19:46.141Z,777.87
2019-01-06T00:19:50.427Z,777.91
2019-01-06T00:19:54.773Z,777.9
2019-01-06T00:19:59.068Z,777.87
2019-01-06T00:20:03.415Z,777.9
2019-01-06T00:20:07.703Z,777.86
2019-01-06T00:20:12.075Z,777.89
2019-01-06T00:20:16.364Z,777.86
2019-01-06T00:20:20.651Z,777.87
2019-01-06T00:20:24.945Z,777.88
2019-01-06T00:20:29.257Z,777.92
2019-01-06T00:20:33.465Z,777.94
2019-01-06T00:20:37.756Z,777.93
2019-01-06T00:20:42.047Z,777.93
2019-01-06T00:20:46.347Z,777.9
2019-01-06T00:20:50.643Z,777.88
2019-01-06T00:20:54.936Z,777.91
2019-01-06T00:20:59.233Z,777.91
2019-01-06T00:21:03.523Z,777.9
2019-01-06T00:21:07.823Z,777.88
2019-01-06T00:21:12.113Z,777.89
2019-01-06T00:21:16.406Z,777.87
2019-01-06T00:21:20.694Z,777.9
2019-01-06T00:21:24.985Z,777.91
2019-01-06T00:21:29.279Z,777.87
2019-01-06T00:21:33.566Z,777.92
2019-01-06T00:21:37.789Z,777.9
2019-01-06T00:21:42.074Z,777.91
2019-01-06T00:21:46.368Z,777.93
2019-01-06T00:21:50.659Z,777.86
2019-01-06T00:21:54.956Z,777.91
2019-01-06T00:21:59.250Z,777.92
2019-01-06T00:22:03.597Z,777.92
2019-01-06T00:22:07.893Z,777.86
2019-01-06T00:22:12.210Z,777.84
2019-01-06T00:22:16.503Z,777.86
2019-01-06T00:22:20.794Z,777.9
2019-01-06T00:22:25.090Z,777.92
2019-01-06T00:22:29.380Z,777.88
2019-01-06T00:22:33.670Z,777.88
2019-01-06T00:22:37.965Z,777.9
2019-01-06T00:22:42.252Z,777.91
2019-01-06T00:22:46.542Z,777.93
2019-01-06T00:22:50.826Z,777.92
2019-01-06T00:22:55.113Z,777.93
2019-01-06T00:22:59.410Z,777.94
2019-01-06T00:23:03.705Z,777.89
2019-01-06T00:23:07.896Z,777.91
2019-01-06T00:23:12.182Z,777.94
2019-01-06T00:23:16.491Z,777.94
2019-01-06T00:23:20.783Z,777.96
2019-01-06T00:23:25.076Z,777.93
2019-01-06T00:23:29.363Z,777.95
2019-01-06T00:23:33.655Z,777.91
2019-01-06T00:23:37.947Z,777.95
2019-01-06T00:23:42.143Z,777.96
2019-01-06T00:23:46.437Z,777.95
2019-01-06T00:23:50.729Z,777.99
2019-01-06T00:23:55.025Z,777.91
2019-01-06T00:23:59.322Z,777.96
2019-01-06T00:24:03.617Z,777.94
2019-01-06T00:24:07.812Z,777.93
2019-01-06T00:24:12.108Z,777.93
2019-01-06T00:24:16.505Z,777.94
2019-01-06T00:24:20.801Z,777.91
2019-01-06T00:24:25.093Z,777.93
2019-01-06T00:24:29.382Z,777.91
2019-01-06T00:24:33.678Z,777.99
2019-01-06T00:24:37.972Z,777.99
2019-01-06T00:24:42.177Z,777.95
2019-01-06T00:24:46.466Z,777.97
2019-01-06T00:24:50.837Z,778.03
2019-01-06T00:24:55.134Z,778.01
2019-01-06T00:24:59.425Z,777.98
2019-01-06T00:25:03.863Z,778.01
2019-01-06T00:25:08.153Z,777.99
2019-01-06T00:25:12.442Z,777.99
2019-01-06T00:25:16.730Z,777.95
2019-01-06T00:25:21.114Z,777.99
2019-01-06T00:25:25.309Z,777.99
2019-01-06T00:25:29.608Z,778.05
2019-01-06T00:25:33.895Z,778.07
2019-01-06T00:25:38.184Z,778.06
2019-01-06T00:25:42.472Z,778.07
2019-01-06T00:25:46.797Z,778.09
2019-01-06T00:25:51.094Z,778.03
2019-01-06T00:25:55.471Z,778.05
2019-01-06T00:25:59.759Z,778.03
2019-01-06T00:26:04.055Z,778.04
2019-01-06T00:26:08.057Z,778.07
2019-01-06T00:26:12.258Z,778.02
2019-01-06T00:26:16.452Z,778.05
2019-01-06T00:26:20.745Z,778.05
2019-01-06T00:26:25.044Z,778.02
2019-01-06T00:26:29.243Z,778.03
2019-01-06T00:26:33.532Z,778.04
2019-01-06T00:26:37.828Z,777.98
2019-01-06T00:26:42.119Z,778
2019-01-06T00:26:46.407Z,778.04
2019-01-06T00:26:50.696Z,778
2019-01-06T00:26:54.894Z,778.02
2019-01-06T00:26:59.189Z,778.02
2019-01-06T00:27:03.482Z,778.08
2019-01-06T00:27:07.795Z,778.04
2019-01-06T00:27:12.104Z,778.06
2019-01-06T00:27:16.400Z,778.12
2019-01-06T00:27:20.593Z,778.11
2019-01-06T00:27:24.930Z,778.12
2019-01-06T00:27:29.122Z,778.08
2019-01-06T00:27:33.412Z,778.04
2019-01-06T00:27:37.708Z,778.09
2019-01-06T00:27:42.003Z,778.1
2019-01-06T00:27:46.292Z,778.12
2019-01-06T00:27:50.585Z,778.16
2019-01-06T00:27:54.877Z,778.12
2019-01-06T00:27:59.173Z,778.12
2019-01-06T00:28:03.425Z,778.11
2019-01-06T00:28:07.717Z,778.12
2019-01-06T00:28:12.066Z,778.08
2019-01-06T00:28:16.357Z,778.06
2019-01-06T00:28:20.652Z,778.07
2019-01-06T00:28:24.955Z,778.21
2019-01-06T00:28:29.253Z,778.19
2019-01-06T00:28:33.556Z,778.15
2019-01-06T00:28:37.846Z,778.13
2019-01-06T00:28:42.135Z,778.14
2019-01-06T00:28:46.421Z,778.14
2019-01-06T00:28:50.712Z,778.11
2019-01-06T00:28:55.005Z,778.15
2019-01-06T00:28:59.302Z,778.19
2019-01-06T00:29:03.601Z,778.2
2019-01-06T00:29:07.894Z,778.19
2019-01-06T00:29:12.184Z,778.16
2019-01-06T00:29:16.383Z,778.2
2019-01-06T00:29:20.578Z,778.16
2019-01-06T00:29:24.867Z,778.16
2019-01-06T00:29:29.058Z,778.17
2019-01-06T00:29:33.349Z,778.21
2019-01-06T00:29:37.644Z,778.14
2019-01-06T00:29:41.935Z,778.16
2019-01-06T00:29:46.223Z,778.18
2019-01-06T00:29:50.517Z,778.17
2019-01-06T00:29:54.819Z,778.21
2019-01-06T00:29:59.022Z,778.2
2019-01-06T00:30:05.325Z,778.22
2019-01-06T00:30:09.534Z,778.17
2019-01-06T00:30:13.828Z,778.2
2019-01-06T00:30:18.131Z,778.18
2019-01-06T00:30:22.439Z,778.22
2019-01-06T00:30:26.743Z,778.22
2019-01-06T00:30:31.043Z,778.23
2019-01-06T00:30:35.329Z,778.21
2019-01-06T00:30:39.622Z,778.21
2019-01-06T00:30:43.975Z,778.22
2019-01-06T00:30:48.272Z,778.18
2019-01-06T00:30:52.481Z,778.23
2019-01-06T00:30:56.677Z,778.28
2019-01-06T00:31:00.973Z,778.27
2019-01-06T00:31:05.274Z,778.28
2019-01-06T00:31:09.569Z,778.29
2019-01-06T00:31:13.870Z,778.27
2019-01-06T00:31:18.169Z,778.28
2019-01-06T00:31:22.462Z,778.28
2019-01-06T00:31:26.760Z,778.32
2019-01-06T00:31:31.051Z,778.28
2019-01-06T00:31:35.355Z,778.28
2019-01-06T00:31:39.655Z,778.3
2019-01-06T00:31:43.945Z,778.31
2019-01-06T00:31:48.245Z,778.32
2019-01-06T00:31:52.471Z,778.33
2019-01-06T00:31:56.761Z,778.34
2019-01-06T00:32:01.053Z,778.27
2019-01-06T00:32:05.350Z,778.33
2019-01-06T00:32:09.652Z,778.29
2019-01-06T00:32:13.944Z,778.32
2019-01-06T00:32:18.252Z,778.35
2019-01-06T00:32:22.544Z,778.31
2019-01-06T00:32:26.835Z,778.32
2019-01-06T00:32:31.126Z,778.3
2019-01-06T00:32:35.441Z,778.32
2019-01-06T00:32:39.737Z,778.33
2019-01-06T00:32:43.939Z,778.31
2019-01-06T00:32:48.252Z,778.33
2019-01-06T00:32:52.445Z,778.31
2019-01-06T00:32:56.729Z,778.36
2019-01-06T00:33:01.022Z,778.32
2019-01-06T00:33:05.319Z,778.36
2019-01-06T00:33:09.620Z,778.4
2019-01-06T00:33:13.916Z,778.39
2019-01-06T00:33:18.212Z,778.37
2019-01-06T00:33:22.502Z,778.42
2019-01-06T00:33:26.806Z,778.39
2019-01-06T00:33:31.117Z,778.38
2019-01-06T00:33:35.414Z,778.4
2019-01-06T00:33:39.765Z,778.4
2019-01-06T00:33:43.963Z,778.41
2019-01-06T00:33:48.254Z,778.38
2019-01-06T00:33:52.545Z,778.39
2019-01-06T00:33:56.841Z,778.38
2019-01-06T00:34:01.134Z,778.44
2019-01-06T00:34:05.430Z,778.42
2019-01-06T00:34:09.725Z,778.44
2019-01-06T00:34:14.021Z,778.44
2019-01-06T00:34:18.310Z,778.43
2019-01-06T00:34:22.600Z,778.42
2019-01-06T00:34:26.940Z,778.46
2019-01-06T00:34:31.235Z,778.47
2019-01-06T00:34:35.537Z,778.45
2019-01-06T00:34:39.836Z,778.41
2019-01-06T00:34:44.133Z,778.5
2019-01-06T00:34:48.431Z,778.44
2019-01-06T00:34:52.800Z,778.5
2019-01-06T00:34:57.102Z,778.46
2019-01-06T00:35:01.390Z,778.54
2019-01-06T00:35:05.683Z,778.5
2019-01-06T00:35:09.977Z,778.49
2019-01-06T00:35:14.268Z,778.48
2019-01-06T00:35:18.561Z,778.46
2019-01-06T00:35:22.852Z,778.5
2019-01-06T00:35:27.144Z,778.49
2019-01-06T00:35:31.439Z,778.46
2019-01-06T00:35:35.733Z,778.47
2019-01-06T00:35:40.032Z,778.48
2019-01-06T00:35:44.232Z,778.42
2019-01-06T00:35:48.532Z,778.52
2019-01-06T00:35:52.797Z,778.52
2019-01-06T00:35:56.989Z,778.53
2019-01-06T00:36:01.285Z,778.52
2019-01-06T00:36:05.577Z,778.53
2019-01-06T00:36:09.898Z,778.47
2019-01-06T00:36:14.191Z,778.5
2019-01-06T00:36:18.288Z,778.54
2019-01-06T00:36:22.583Z,778.52
2019-01-06T00:36:26.777Z,778.48
2019-01-06T00:36:31.076Z,778.49
2019-01-06T00:36:35.177Z,778.5
2019-01-06T00:36:39.469Z,778.48
2019-01-06T00:36:43.665Z,778.5
2019-01-06T00:36:47.969Z,778.49
2019-01-06T00:36:52.265Z,778.5
2019-01-06T00:36:56.560Z,778.49
2019-01-06T00:37:00.856Z,778.52
2019-01-06T00:37:05.050Z,778.45
2019-01-06T00:37:09.337Z,778.46
2019-01-06T00:37:13.539Z,778.46
2019-01-06T00:37:17.832Z,778.46
2019-01-06T00:37:22.136Z,778.43
2019-01-06T00:37:26.428Z,778.46
2019-01-06T00:37:30.724Z,778.5
2019-01-06T00:37:35.009Z,778.48
2019-01-06T00:37:39.205Z,778.47
2019-01-06T00:37:43.500Z,778.47
2019-01-06T00:37:47.826Z,778.5
2019-01-06T00:37:52.026Z,778.44
2019-01-06T00:37:56.219Z,778.46
2019-01-06T00:38:00.513Z,778.4
2019-01-06T00:38:04.953Z,778.44
2019-01-06T00:38:09.246Z,778.47
2019-01-06T00:38:13.534Z,778.48
2019-01-06T00:38:17.824Z,778.42
2019-01-06T00:38:22.127Z,778.44
2019-01-06T00:38:26.416Z,778.42
2019-01-06T00:38:30.704Z,778.4
2019-01-06T00:38:35.015Z,778.36
2019-01-06T00:38:39.306Z,778.4
2019-01-06T00:38:43.596Z,778.38
2019-01-06T00:38:47.792Z,778.33
2019-01-06T00:38:52.085Z,778.37
2019-01-06T00:38:56.381Z,778.37
2019-01-06T00:39:00.571Z,778.37
2019-01-06T00:39:04.916Z,778.37
2019-01-06T00:39:09.253Z,778.3
2019-01-06T00:39:13.451Z,778.38
2019-01-06T00:39:17.749Z,778.35
2019-01-06T00:39:22.045Z,778.33
2019-01-06T00:39:26.331Z,778.32
2019-01-06T00:39:30.623Z,778.34
2019-01-06T00:39:34.923Z,778.34
2019-01-06T00:39:39.215Z,778.28
2019-01-06T00:39:43.511Z,778.31
2019-01-06T00:39:47.806Z,778.34
2019-01-06T00:39:52.035Z,778.33
2019-01-06T00:39:56.327Z,778.28
2019-01-06T00:40:00.636Z,778.28
2019-01-06T00:40:04.931Z,778.26
2019-01-06T00:40:09.230Z,778.28
2019-01-06T00:40:13.521Z,778.24
2019-01-06T00:40:17.812Z,778.28
2019-01-06T00:40:22.005Z,778.26
2019-01-06T00:40:26.302Z,778.29
2019-01-06T00:40:30.590Z,778.27
2019-01-06T00:40:34.790Z,778.23
2019-01-06T00:40:39.084Z,778.28
2019-01-06T00:40:43.380Z,778.27
2019-01-06T00:40:47.580Z,778.19
2019-01-06T00:40:51.878Z,778.21
2019-01-06T00:40:56.083Z,778.22
2019-01-06T00:41:00.375Z,778.19
2019-01-06T00:41:04.666Z,778.23
2019-01-06T00:41:08.958Z,778.23
2019-01-06T00:41:13.246Z,778.21
2019-01-06T00:41:17.549Z,778.21
2019-01-06T00:41:21.841Z,778.24
2019-01-06T00:41:26.136Z,778.21
2019-01-06T00:41:30.335Z,778.2
2019-01-06T00:41:34.629Z,778.23
2019-01-06T00:41:38.828Z,778.22
2019-01-06T00:41:43.116Z,778.24
2019-01-06T00:41:47.406Z,778.21
2019-01-06T00:41:51.706Z,778.18
2019-01-06T00:41:56.011Z,778.12
2019-01-06T00:42:00.301Z,778.19
2019-01-06T00:42:04.490Z,778.19
2019-01-06T00:42:08.689Z,778.13
2019-01-06T00:42:12.978Z,778.18
2019-01-06T00:42:17.340Z,778.15
2019-01-06T00:42:21.533Z,778.1
2019-01-06T00:42:25.825Z,778.13
2019-01-06T00:42:30.119Z,778.23
2019-01-06T00:42:34.422Z,778.18
2019-01-06T00:42:38.718Z,778.17
2019-01-06T00:42:43.014Z,778.17
2019-01-06T00:42:47.209Z,778.15
2019-01-06T00:42:51.499Z,778.11
2019-01-06T00:42:55.790Z,778.06
2019-01-06T00:43:00.085Z,778.07
2019-01-06T00:43:04.380Z,778.02
2019-01-06T00:43:08.674Z,778.03
2019-01-06T00:43:12.966Z,778.08
2019-01-06T00:43:17.265Z,778.16
2019-01-06T00:43:21.554Z,778.11
2019-01-06T00:43:25.850Z,778.12
2019-01-06T00:43:30.146Z,778.13
2019-01-06T00:43:34.449Z,778.12
2019-01-06T00:43:38.654Z,778.14
2019-01-06T00:43:42.945Z,778.11
2019-01-06T00:43:47.146Z,778.07
2019-01-06T00:43:51.440Z,778.09
2019-01-06T00:43:55.731Z,778.08
2019-01-06T00:44:00.021Z,778.11
2019-01-06T00:44:04.464Z,778.01
2019-01-06T00:44:08.660Z,778.03
2019-01-06T00:44:12.955Z,777.97
2019-01-06T00:44:17.242Z,778.02
2019-01-06T00:44:21.536Z,778.02
2019-01-06T00:44:25.830Z,777.99
2019-01-06T00:44:30.125Z,777.97
2019-01-06T00:44:34.451Z,777.99
2019-01-06T00:44:38.743Z,777.92
2019-01-06T00:44:43.028Z,777.99
2019-01-06T00:44:47.327Z,777.93
2019-01-06T00:44:51.619Z,777.96
2019-01-06T00:44:55.821Z,777.9
2019-01-06T00:45:00.109Z,777.92
2019-01-06T00:45:04.423Z,777.94
2019-01-06T00:45:08.715Z,777.99
2019-01-06T00:45:13.002Z,777.91
2019-01-06T00:45:17.291Z,777.93
2019-01-06T00:45:21.590Z,777.92
2019-01-06T00:45:25.886Z,777.95
2019-01-06T00:45:30.176Z,777.89
2019-01-06T00:45:34.479Z,777.92
2019-01-06T00:45:38.768Z,777.93
2019-01-06T00:45:43.005Z,777.93
2019-01-06T00:45:47.305Z,777.95
2019-01-06T00:45:51.625Z,777.92
2019-01-06T00:45:55.930Z,777.96
2019-01-06T00:46:00.230Z,777.94
2019-01-06T00:46:04.536Z,777.92
2019-01-06T00:46:08.762Z,777.91
2019-01-06T00:46:13.059Z,777.98
2019-01-06T00:46:17.353Z,777.97
2019-01-06T00:46:21.643Z,777.94
2019-01-06T00:46:25.844Z,777.94
2019-01-06T00:46:30.032Z,777.9
2019-01-06T00:46:34.330Z,777.96
2019-01-06T00:46:38.621Z,777.96
2019-01-06T00:46:42.814Z,777.9
2019-01-06T00:46:47.013Z,777.96
2019-01-06T00:46:51.305Z,777.96
2019-01-06T00:46:55.594Z,777.93
2019-01-06T00:46:59.881Z,777.96
2019-01-06T00:47:04.088Z,777.94
2019-01-06T00:47:08.393Z,777.95
2019-01-06T00:47:12.681Z,777.94
2019-01-06T00:47:16.970Z,777.95
2019-01-06T00:47:21.267Z,777.95
2019-01-06T00:47:25.550Z,777.93
2019-01-06T00:47:29.851Z,777.94
2019-01-06T00:47:34.044Z,777.96
2019-01-06T00:47:38.343Z,777.94
2019-01-06T00:47:42.638Z,777.95
2019-01-06T00:47:46.931Z,777.94
2019-01-06T00:47:51.224Z,777.95
2019-01-06T00:47:55.522Z,777.94
2019-01-06T00:47:59.813Z,777.96
2019-01-06T00:48:04.110Z,777.96
2019-01-06T00:48:08.308Z,777.94
2019-01-06T00:48:12.596Z,777.94
2019-01-06T00:48:16.904Z,777.89
2019-01-06T00:48:21.192Z,777.93
2019-01-06T00:48:25.488Z,777.92
2019-01-06T00:48:29.830Z,777.91
2019-01-06T00:48:34.130Z,777.9
2019-01-06T00:48:38.423Z,777.94
2019-01-06T00:48:42.717Z,777.95
2019-01-06T00:48:47.003Z,777.92
2019-01-06T00:48:51.294Z,777.93
2019-01-06T00:48:55.684Z,777.92
2019-01-06T00:48:59.971Z,777.93
2019-01-06T00:49:04.314Z,777.94
2019-01-06T00:49:08.605Z,777.92
2019-01-06T00:49:12.920Z,777.94
2019-01-06T00:49:17.115Z,777.92
2019-01-06T00:49:21.404Z,777.93
2019-01-06T00:49:25.694Z,777.96
2019-01-06T00:49:29.885Z,777.94
2019-01-06T00:49:34.168Z,777.95
2019-01-06T00:49:38.471Z,777.91
2019-01-06T00:49:42.775Z,777.92
2019-01-06T00:49:47.071Z,777.97
2019-01-06T00:49:51.272Z,777.95
2019-01-06T00:49:55.574Z,777.94
2019-01-06T00:49:59.806Z,777.94
2019-01-06T00:50:04.027Z,777.93
2019-01-06T00:50:08.322Z,777.93
2019-01-06T00:50:12.519Z,777.87
2019-01-06T00:50:16.842Z,777.94
2019-01-06T00:50:21.128Z,777.94
2019-01-06T00:50:25.420Z,777.97
2019-01-06T00:50:29.714Z,778
2019-01-06T00:50:34.014Z,777.95
2019-01-06T00:50:38.207Z,777.97
2019-01-06T00:50:42.399Z,777.95
2019-01-06T00:50:46.709Z,777.94
2019-01-06T00:50:51.004Z,777.96
2019-01-06T00:50:55.379Z,777.95
2019-01-06T00:50:59.571Z,777.98
2019-01-06T00:51:03.861Z,777.98
2019-01-06T00:51:08.160Z,777.97
2019-01-06T00:51:12.448Z,777.95
2019-01-06T00:51:16.746Z,777.99
2019-01-06T00:51:20.939Z,777.97
2019-01-06T00:51:25.236Z,777.99
2019-01-06T00:51:29.536Z,777.95
2019-01-06T00:51:33.833Z,778
2019-01-06T00:51:38.203Z,777.96
2019-01-06T00:51:42.503Z,778.02
2019-01-06T00:51:46.800Z,778
2019-01-06T00:51:51.092Z,777.99
2019-01-06T00:51:55.385Z,777.99
2019-01-06T00:51:59.679Z,777.97
2019-01-06T00:52:03.877Z,778
2019-01-06T00:52:08.169Z,778.02
2019-01-06T00:52:12.365Z,778.01
2019-01-06T00:52:16.664Z,777.99
2019-01-06T00:52:20.878Z,778.02
2019-01-06T00:52:25.072Z,778.02
2019-01-06T00:52:29.359Z,777.99
2019-01-06T00:52:33.657Z,777.99
2019-01-06T00:52:37.949Z,778.02
2019-01-06T00:52:42.252Z,778.01
2019-01-06T00:52:46.555Z,777.98
2019-01-06T00:52:50.753Z,777.97
2019-01-06T00:52:55.050Z,777.98
2019-01-06T00:52:59.343Z,777.95
2019-01-06T00:53:03.641Z,777.97
2019-01-06T00:53:07.936Z,777.98
2019-01-06T00:53:12.231Z,777.96
2019-01-06T00:53:16.519Z,777.94
2019-01-06T00:53:20.818Z,777.95
2019-01-06T00:53:25.143Z,777.97
2019-01-06T00:53:29.430Z,777.99
2019-01-06T00:53:33.649Z,778.04
2019-01-06T00:53:37.943Z,777.98
2019-01-06T00:53:42.236Z,778.03
2019-01-06T00:53:46.491Z,778.03